Time;durP1;ratioP1;P1;durP2;ratioP2;P2;SDS_P1;SDS_P2;PMS_P1;PMS_P2;Temp;Humidity;BMP_temperature;BMP_pressure;BME280_temperature;BME280_humidity;BME280_pressure;Samples;Min_cycle;Max_cycle;Signal;HPM_P1;HPM_P2
2022/09/19 00:02:54;;;;;;;5.43;1.50;;;;;;;7.89;93.95;99530.77;3613404;80;98000;-85
2022/09/19 00:07:55;;;;;;;5.43;1.50;;;;;;;7.88;93.22;99528.41;3620913;80;25879;-85
2022/09/19 00:12:56;;;;;;;5.37;1.80;;;;;;;7.81;93.52;99527.76;3610661;80;98050;-84
2022/09/19 00:17:57;;;;;;;5.67;1.97;;;;;;;7.78;93.40;99529.91;3619992;80;33089;-84
2022/09/19 00:28:16;;;;;;;4.58;1.60;;;;;;;7.71;93.35;99535.91;3606253;80;34842;-84
2022/09/19 00:33:18;;;;;;;4.13;1.50;;;;;;;7.68;93.01;99542.16;3615318;80;98010;-84
2022/09/19 00:38:23;;;;;;;7.80;2.00;;;;;;;7.60;93.23;99538.57;3605908;80;34784;-84
2022/09/19 00:43:46;;;;;;;2.73;1.30;;;;;;;7.53;93.17;99539.86;3605568;80;98148;-84
2022/09/19 00:49:07;;;;;;;4.92;1.60;;;;;;;7.50;93.53;99537.09;3605296;80;34096;-84
2022/09/19 00:54:13;;;;;;;6.08;1.50;;;;;;;7.49;93.66;99539.05;3553137;80;98011;-84
2022/09/19 00:59:15;;;;;;;4.05;1.65;;;;;;;7.47;93.51;99536.49;3610147;80;25843;-83
2022/09/19 01:04:20;;;;;;;3.62;1.52;;;;;;;7.48;93.72;99538.83;3591986;80;98022;-83
2022/09/19 01:09:35;;;;;;;4.17;1.45;;;;;;;7.46;93.57;99534.33;3608113;80;33458;-84
2022/09/19 01:15:12;;;;;;;6.62;1.72;;;;;;;7.47;93.54;99538.63;3602545;80;98191;-84
2022/09/19 01:20:48;;;;;;;7.37;1.72;;;;;;;7.43;93.66;99535.09;3592146;80;35303;-87
2022/09/19 01:25:57;;;;;;;3.77;1.60;;;;;;;7.31;93.47;99534.58;3592880;80;98169;-84
2022/09/19 01:31:20;;;;;;;5.35;1.80;;;;;;;7.31;93.75;99546.89;3591004;80;35286;-84
2022/09/19 01:36:27;;;;;;;4.50;1.63;;;;;;;7.31;93.77;99549.03;3618168;80;31133;-84
2022/09/19 01:41:30;;;;;;;3.77;1.82;;;;;;;7.31;93.56;99551.00;3585516;80;98037;-84
2022/09/19 01:47:09;;;;;;;5.67;2.10;;;;;;;7.12;93.93;99551.18;3632237;80;33937;-84
2022/09/19 01:52:41;;;;;;;7.70;3.65;;;;;;;7.11;94.04;99549.61;3622358;80;98300;-84
2022/09/19 01:58:04;;;;;;;4.47;1.92;;;;;;;7.10;94.08;99553.52;3626524;80;34780;-83
2022/09/19 02:03:23;;;;;;;7.08;3.30;;;;;;;7.07;94.05;99552.31;3623839;80;98075;-83
2022/09/19 02:08:39;;;;;;;9.95;4.72;;;;;;;6.97;94.46;99554.34;3624668;80;33987;-84
2022/09/19 02:13:51;;;;;;;12.13;5.72;;;;;;;6.84;95.25;99559.07;3622670;80;98011;-84
2022/09/19 02:19:00;;;;;;;13.45;6.47;;;;;;;6.77;96.17;99552.92;3631963;80;34810;-83
2022/09/19 02:24:06;;;;;;;13.00;5.85;;;;;;;6.70;97.24;99564.38;3623914;80;98179;-85
2022/09/19 02:29:12;;;;;;;12.25;6.55;;;;;;;6.69;97.56;99566.31;3627454;80;34807;-83
2022/09/19 02:34:14;;;;;;;;;;;;;;;6.68;98.52;99563.95;3609948;80;98139;-83
2022/09/19 02:39:25;;;;;;;13.85;5.10;;;;;;;6.71;99.62;99570.05;3622810;80;35381;-83
2022/09/19 02:45:02;;;;;;;11.20;5.80;;;;;;;6.81;99.41;99574.87;3609624;80;98328;-84
2022/09/19 02:50:25;;;;;;;11.60;4.90;;;;;;;6.93;99.37;99571.88;3543943;80;29163;-83
2022/09/19 02:55:31;;;;;;;12.50;5.65;;;;;;;7.01;99.32;99576.27;3611926;80;97996;-85
2022/09/19 03:00:35;;;;;;;12.10;6.17;;;;;;;7.09;99.87;99577.94;3592442;80;26733;-84
2022/09/19 03:05:38;;;;;;;18.92;7.10;;;;;;;7.09;99.87;99575.97;3615917;80;98039;-83
2022/09/19 03:10:46;;;;;;;15.90;6.53;;;;;;;7.16;100.00;99575.27;3612803;80;34847;-83
2022/09/19 03:16:02;;;;;;;11.70;5.42;;;;;;;7.18;100.00;99579.20;3613899;80;98230;-84
2022/09/19 03:21:09;;;;;;;15.13;6.45;;;;;;;7.25;100.00;99578.50;3620001;80;35979;-84
2022/09/19 03:26:14;;;;;;;14.00;7.33;;;;;;;7.30;100.00;99585.02;3613675;80;33640;-86
2022/09/19 03:31:16;;;;;;;12.53;6.12;;;;;;;7.35;100.00;99579.17;3613757;80;98733;-84
2022/09/19 03:36:18;;;;;;;14.95;7.10;;;;;;;7.39;100.00;99587.64;3597669;80;34974;-83
2022/09/19 03:41:22;;;;;;;15.18;6.80;;;;;;;7.46;100.00;99584.97;3548668;82;98763;-83
2022/09/19 03:46:23;;;;;;;14.23;7.22;;;;;;;7.47;100.00;99578.92;3543707;82;34354;-83
2022/09/19 03:51:24;;;;;;;16.10;7.72;;;;;;;7.50;100.00;99592.64;3539993;82;98293;-84
2022/09/19 03:56:26;;;;;;;16.53;8.43;;;;;;;7.59;100.00;99592.33;3564036;81;26573;-84
2022/09/19 04:01:27;;;;;;;13.90;7.87;;;;;;;7.66;100.00;99588.28;3551049;82;98640;-84
2022/09/19 04:06:28;;;;;;;19.10;8.70;;;;;;;7.69;100.00;99592.42;3554859;81;28186;-84
2022/09/19 04:11:29;;;;;;;14.17;8.00;;;;;;;7.74;100.00;99592.67;3539197;82;98328;-83
2022/09/19 04:16:30;;;;;;;20.13;8.70;;;;;;;7.77;100.00;99598.75;3566451;81;26006;-83
2022/09/19 04:21:31;;;;;;;18.13;9.80;;;;;;;7.81;100.00;99594.86;3542927;81;98572;-83
2022/09/19 04:26:32;;;;;;;20.33;9.77;;;;;;;7.85;100.00;99603.14;3552326;81;32436;-84
2022/09/19 04:31:41;;;;;;;18.23;9.45;;;;;;;7.85;100.00;99594.32;3564002;81;98381;-84
2022/09/19 04:36:43;;;;;;;17.37;9.75;;;;;;;7.85;100.00;99603.91;3586568;80;33885;-84
2022/09/19 04:41:45;;;;;;;16.53;9.37;;;;;;;7.87;100.00;99605.70;3620200;80;98630;-84
2022/09/19 04:46:47;;;;;;;18.92;9.33;;;;;;;7.89;100.00;99615.69;3627897;80;33170;-84
2022/09/19 04:51:48;;;;;;;18.07;8.55;;;;;;;7.93;100.00;99622.56;3617511;80;98620;-83
2022/09/19 04:56:49;;;;;;;18.40;8.47;;;;;;;7.97;100.00;99631.02;3624312;80;28332;-85
2022/09/19 05:01:51;;;;;;;16.73;8.45;;;;;;;8.00;100.00;99637.11;3622841;80;98325;-85
2022/09/19 05:06:52;;;;;;;16.15;9.30;;;;;;;8.04;100.00;99642.05;3635650;80;35391;-85
2022/09/19 05:11:55;;;;;;;13.80;8.00;;;;;;;8.07;100.00;99644.02;3618396;80;98626;-84
2022/09/19 05:16:56;;;;;;;14.03;8.30;;;;;;;8.08;100.00;99653.04;3636041;80;35634;-85
2022/09/19 05:21:57;;;;;;;14.57;8.53;;;;;;;8.11;100.00;99651.69;3625855;80;99022;-85
2022/09/19 05:26:58;;;;;;;17.23;8.77;;;;;;;8.14;100.00;99655.06;3633277;80;26288;-85
2022/09/19 05:32:02;;;;;;;18.23;7.97;;;;;;;8.19;100.00;99656.66;3628100;80;98351;-85
2022/09/19 05:37:04;;;;;;;17.52;9.50;;;;;;;8.23;100.00;99669.24;3630201;80;34450;-86
2022/09/19 05:42:05;;;;;;;16.97;8.63;;;;;;;8.28;100.00;99666.15;3614537;80;98359;-85
2022/09/19 05:47:06;;;;;;;16.03;8.57;;;;;;;8.35;100.00;99669.54;3624866;79;25993;-87
2022/09/19 05:57:26;;;;;;;17.90;9.40;;;;;;;8.40;100.00;99676.05;3622583;80;33047;-87
2022/09/19 06:02:27;;;;;;;17.47;9.70;;;;;;;8.47;100.00;99684.31;3600952;80;98790;-85
2022/09/19 06:07:29;;;;;;;16.53;9.03;;;;;;;8.50;100.00;99683.56;3623694;80;25815;-86
2022/09/19 06:12:30;;;;;;;14.63;8.87;;;;;;;8.52;100.00;99681.22;3619790;80;98389;-88
2022/09/19 06:17:31;;;;;;;16.43;9.13;;;;;;;8.57;100.00;99695.34;3622689;80;26461;-86
2022/09/19 06:22:32;;;;;;;13.33;7.50;;;;;;;8.59;100.00;99686.17;3616717;80;98477;-87
2022/09/19 06:27:33;;;;;;;14.80;8.47;;;;;;;8.65;100.00;99696.98;3625360;79;32946;-90
2022/09/19 06:32:38;;;;;;;12.20;7.27;;;;;;;8.72;100.00;99701.75;3611422;80;98556;-86
2022/09/19 06:37:39;;;;;;;13.80;7.45;;;;;;;8.79;100.00;99705.30;3587598;80;36061;-86
2022/09/19 06:42:41;;;;;;;13.67;6.80;;;;;;;8.88;100.00;99709.88;3536890;82;98383;-86
2022/09/19 06:47:42;;;;;;;12.97;6.73;;;;;;;8.94;100.00;99719.91;3546601;81;26620;-89
2022/09/19 06:52:46;;;;;;;16.20;6.53;;;;;;;9.02;100.00;99725.06;3531152;82;98315;-86
2022/09/19 06:58:00;;;;;;;11.00;6.45;;;;;;;9.04;100.00;99723.28;3534836;82;34830;-88
2022/09/19 07:03:07;;;;;;;11.45;5.75;;;;;;;9.09;100.00;99725.09;3530284;81;98382;-87
2022/09/19 07:08:07;;;;;;;;;;;;;;;9.13;100.00;99731.41;3532288;81;26046;-87
2022/09/19 07:13:13;;;;;;;12.65;6.08;;;;;;;9.16;100.00;99736.71;3534280;82;84385;-87
2022/09/19 07:18:14;;;;;;;12.00;6.07;;;;;;;9.15;100.00;99737.86;3530730;81;25918;-90
2022/09/19 07:23:17;;;;;;;13.27;5.97;;;;;;;9.19;100.00;99742.22;3550984;81;98380;-91
2022/09/19 07:28:20;;;;;;;11.80;6.22;;;;;;;9.25;100.00;99742.05;3543814;81;34852;-93
2022/09/19 07:33:22;;;;;;;12.00;6.58;;;;;;;9.28;100.00;99747.36;3529537;81;98807;-89
2022/09/19 07:38:26;;;;;;;13.60;6.77;;;;;;;9.33;100.00;99756.00;3590160;79;32196;-91
2022/09/19 07:43:28;;;;;;;13.05;6.00;;;;;;;9.32;100.00;99758.55;3619551;79;98723;-93
2022/09/19 07:48:29;;;;;;;11.43;5.83;;;;;;;9.37;100.00;99771.15;3627087;79;34807;-91
2022/09/19 07:53:30;;;;;;;10.60;5.47;;;;;;;9.44;100.00;99775.30;3628989;79;98440;-88
2022/09/19 07:58:31;;;;;;;12.40;5.67;;;;;;;9.41;100.00;99778.22;3622439;80;25905;-89
2022/09/19 08:03:32;;;;;;;9.13;4.83;;;;;;;9.47;100.00;99783.55;3637246;80;98727;-88
2022/09/19 08:08:35;;;;;;;10.00;5.10;;;;;;;9.49;100.00;99784.55;3628881;79;25865;-89
2022/09/19 08:13:36;;;;;;;10.35;4.70;;;;;;;9.55;100.00;99788.50;3610128;80;98810;-90
2022/09/19 08:18:39;;;;;;;14.33;6.93;;;;;;;9.56;100.00;99789.49;3619819;80;28908;-91
2022/09/19 08:23:40;;;;;;;12.13;5.62;;;;;;;9.61;100.00;99799.31;3615965;79;98700;-93
2022/09/19 08:28:41;;;;;;;10.20;5.47;;;;;;;9.64;100.00;99802.08;3625585;80;27151;-90
2022/09/19 08:33:42;;;;;;;9.87;5.33;;;;;;;9.70;100.00;99795.03;3613661;80;98646;-94
2022/09/19 08:38:43;;;;;;;11.20;6.10;;;;;;;9.69;100.00;99792.66;3632879;80;25910;-91
2022/09/19 08:44:22;;;;;;;9.10;5.07;;;;;;;9.83;100.00;99806.48;3631313;80;98312;-91
2022/09/19 08:49:34;;;;;;;10.08;5.20;;;;;;;9.87;100.00;99810.03;3619826;80;33985;-91
2022/09/19 08:54:41;;;;;;;9.45;4.90;;;;;;;9.91;100.00;99814.36;3629301;80;98233;-91
2022/09/19 08:59:45;;;;;;;8.50;4.62;;;;;;;10.02;100.00;99819.31;3637253;80;35377;-91
2022/09/19 09:04:46;;;;;;;9.83;5.22;;;;;;;10.15;100.00;99821.92;3633525;80;98443;-90
2022/09/19 09:10:10;;;;;;;11.53;5.90;;;;;;;10.27;100.00;99830.41;3646130;80;28149;-88
2022/09/19 09:15:25;;;;;;;12.23;6.12;;;;;;;10.37;100.00;99826.30;3634596;80;98529;-90
2022/09/19 09:20:59;;;;;;;8.75;4.80;;;;;;;10.50;100.00;99826.14;3636147;80;34825;-90
2022/09/19 09:26:06;;;;;;;10.95;4.17;;;;;;;10.63;100.00;99827.94;3621180;80;98231;-91
2022/09/19 09:31:26;;;;;;;6.58;4.05;;;;;;;10.67;100.00;99833.64;3627737;79;98856;-92
2022/09/19 09:36:42;;;;;;;7.10;4.17;;;;;;;10.85;100.00;99840.54;3635633;80;34846;-91
2022/09/19 09:41:49;;;;;;;8.73;4.50;;;;;;;10.97;100.00;99840.91;3601802;79;98860;-91
2022/09/19 09:47:04;;;;;;;7.62;4.00;;;;;;;11.01;100.00;99832.06;3584210;80;34904;-91
2022/09/19 09:52:28;;;;;;;8.15;4.53;;;;;;;11.15;100.00;99852.73;3596916;80;98888;-91
2022/09/19 09:57:56;;;;;;;7.30;4.17;;;;;;;11.34;100.00;99853.68;3616472;80;34825;-91
2022/09/19 10:03:35;;;;;;;9.10;4.08;;;;;;;11.49;100.00;99859.38;3602175;80;98541;-91
2022/09/19 10:08:55;;;;;;;8.53;4.42;;;;;;;11.68;100.00;99863.12;3605149;80;36217;-91
2022/09/19 10:14:01;;;;;;;8.13;4.30;;;;;;;11.84;100.00;99871.70;3604873;80;98709;-90
2022/09/19 10:19:17;;;;;;;10.45;4.75;;;;;;;11.95;100.00;99862.04;3619207;80;35496;-90
2022/09/19 10:24:55;;;;;;;7.50;4.10;;;;;;;12.05;100.00;99861.22;3613251;80;98662;-90
2022/09/19 10:30:06;;;;;;;8.53;4.37;;;;;;;12.14;99.96;99872.01;3614159;80;34880;-90
2022/09/19 10:35:33;;;;;;;6.72;4.00;;;;;;;12.22;99.55;99880.44;3606770;79;98095;-90
2022/09/19 10:40:33;;;;;;;;;;;;;;;12.24;99.52;99880.04;3629305;80;25803;-89
2022/09/19 10:45:37;;;;;;;6.37;3.47;;;;;;;12.23;99.63;99890.30;3630443;80;84303;-89
2022/09/19 10:50:47;;;;;;;7.20;4.22;;;;;;;12.31;99.48;99889.07;3630866;80;35495;-89
2022/09/19 10:55:50;;;;;;;5.00;2.80;;;;;;;12.32;99.26;99894.02;3619493;80;98865;-89
2022/09/19 11:00:58;;;;;;;5.20;2.80;;;;;;;12.28;99.06;99898.75;3629770;80;34876;-89
2022/09/19 11:06:16;;;;;;;3.15;2.17;;;;;;;12.31;98.89;99899.34;3632380;80;97948;-89
2022/09/19 11:11:38;;;;;;;5.08;3.10;;;;;;;12.31;98.35;99901.48;3629501;80;99260;-88
2022/09/19 11:17:34;;;;;;;5.17;3.17;;;;;;;12.31;98.39;99900.72;3742197;77;34785;-88
2022/09/19 11:23:18;;;;;;;5.47;3.12;;;;;;;12.26;98.26;99883.20;3740504;77;98419;-88
2022/09/19 11:28:47;;;;;;;7.72;4.45;;;;;;;12.26;98.26;99883.20;3743838;77;34832;-88
2022/09/19 11:34:20;;;;;;;7.78;4.55;;;;;;;12.44;98.27;99912.27;3743257;77;98488;-88
2022/09/19 11:39:35;;;;;;;6.30;3.95;;;;;;;12.61;98.58;99883.01;3636642;79;34977;-89
2022/09/19 11:44:48;;;;;;;8.03;4.85;;;;;;;12.61;98.58;99883.01;3596759;80;98311;-89
2022/09/19 11:50:47;;;;;;;6.77;4.00;;;;;;;12.93;98.49;99902.31;3609264;80;31488;-87
2022/09/19 11:56:11;;;;;;;6.75;3.45;;;;;;;13.26;97.85;99903.69;3599296;80;98637;-89
2022/09/19 12:01:36;;;;;;;6.37;3.22;;;;;;;13.44;96.28;99903.73;3637808;78;98365;-90
2022/09/19 12:06:53;;;;;;;8.58;3.55;;;;;;;13.99;96.29;99891.91;3624982;80;34985;-87
2022/09/19 12:12:11;;;;;;;6.25;3.10;;;;;;;13.99;96.29;99891.91;3630657;78;98352;-89
2022/09/19 12:17:32;;;;;;;7.08;3.55;;;;;;;14.11;95.16;99900.28;3632582;80;34847;-89
2022/09/19 12:22:34;;;;;;;6.33;3.17;;;;;;;14.41;95.36;99901.71;3619336;79;98349;-88
2022/09/19 12:27:50;;;;;;;5.35;3.00;;;;;;;14.73;95.41;99904.25;3640258;78;33974;-88
2022/09/19 12:33:24;;;;;;;3.90;2.12;;;;;;;14.90;94.13;99903.20;3633535;78;98388;-87
2022/09/19 12:38:45;;;;;;;5.80;2.15;;;;;;;15.14;93.31;99905.39;3640750;80;35061;-86
2022/09/19 12:44:23;;;;;;;4.95;2.10;;;;;;;15.42;93.15;99907.14;3630554;78;98895;-87
2022/09/19 12:49:34;;;;;;;4.08;1.90;;;;;;;15.58;90.88;99904.49;3635169;79;34802;-85
2022/09/19 12:54:46;;;;;;;3.75;2.17;;;;;;;15.66;89.76;99912.09;3639091;78;98491;-87
2022/09/19 12:59:47;;;;;;;2.95;1.75;;;;;;;15.85;88.97;99909.35;3637792;80;35320;-85
2022/09/19 13:04:59;;;;;;;2.90;1.70;;;;;;;15.89;87.07;99905.91;3615337;79;98399;-85
2022/09/19 13:10:14;;;;;;;2.80;1.50;;;;;;;15.93;86.87;99914.17;3638323;79;34845;-85
2022/09/19 13:15:23;;;;;;;4.67;1.60;;;;;;;16.07;85.94;99912.52;3635066;80;98213;-84
2022/09/19 13:25:50;;;;;;;4.35;1.50;;;;;;;16.42;85.90;99909.05;3616423;79;98060;-86
2022/09/19 13:31:09;;;;;;;4.60;1.70;;;;;;;16.46;82.49;99910.54;3637738;79;42487;-86
2022/09/19 13:36:14;;;;;;;2.30;1.17;;;;;;;16.51;83.83;99909.27;3642584;79;35293;-86
2022/09/19 13:41:41;;;;;;;3.13;1.47;;;;;;;16.59;83.63;99906.50;3632157;79;98431;-86
2022/09/19 13:47:07;;;;;;;1.95;1.00;;;;;;;16.58;82.27;99908.48;3628817;80;34854;-87
2022/09/19 13:52:32;;;;;;;3.90;1.35;;;;;;;16.54;82.00;99914.75;3625473;80;98437;-87
2022/09/19 13:57:35;;;;;;;2.33;1.17;;;;;;;16.64;81.46;99926.25;3632866;80;35088;-87
2022/09/19 14:02:40;;;;;;;2.70;1.10;;;;;;;16.68;80.30;99925.54;3625557;80;98383;-86
2022/09/19 14:07:59;;;;;;;5.07;1.27;;;;;;;16.72;79.75;99926.85;3633457;80;28398;-88
2022/09/19 14:13:11;;;;;;;2.15;1.17;;;;;;;16.75;78.35;99932.95;3590214;81;98505;-87
2022/09/19 14:18:29;;;;;;;2.30;1.00;;;;;;;16.71;78.08;99943.35;3715156;78;34807;-86
2022/09/19 14:23:33;;;;;;;2.55;0.93;;;;;;;16.80;79.20;99951.90;3713824;78;98374;-88
2022/09/19 14:29:05;;;;;;;3.00;1.02;;;;;;;16.97;78.19;99954.89;3737624;78;34831;-88
2022/09/19 14:34:49;;;;;;;1.87;0.70;;;;;;;17.01;77.86;99993.14;3724783;78;98446;-86
2022/09/19 14:40:01;;;;;;;2.40;1.00;;;;;;;16.79;76.48;100012.25;3736312;77;34860;-88
2022/09/19 14:45:36;;;;;;;6.85;2.00;;;;;;;16.42;78.13;100027.10;3736671;77;98453;-93
2022/09/19 14:50:50;;;;;;;3.47;1.10;;;;;;;16.27;79.08;100037.66;3664839;78;59144;-89
2022/09/19 14:56:13;;;;;;;4.22;1.42;;;;;;;16.03;79.10;100036.71;3359447;85;98594;-87
2022/09/19 15:01:27;;;;;;;4.65;1.50;;;;;;;15.76;79.36;100020.72;3351655;86;98953;-86
2022/09/19 15:06:35;;;;;;;6.67;1.75;;;;;;;15.50;79.77;100017.36;3383640;86;34940;-85
2022/09/19 15:11:47;;;;;;;8.43;2.77;;;;;;;15.28;80.19;100016.08;3386543;85;98429;-85
2022/09/19 15:17:10;;;;;;;5.67;2.00;;;;;;;15.08;80.57;100002.70;3396363;86;34840;-85
2022/09/19 15:22:27;;;;;;;4.12;1.92;;;;;;;14.97;81.17;100007.01;3401823;85;98609;-85
2022/09/19 15:27:35;;;;;;;2.62;1.25;;;;;;;14.88;81.23;100008.11;3386057;85;35915;-86
2022/09/19 15:32:39;;;;;;;7.60;2.30;;;;;;;14.77;81.61;100013.00;3380899;84;98491;-86
2022/09/19 15:37:43;;;;;;;6.12;2.52;;;;;;;14.70;81.91;100013.69;3396013;84;34838;-87
2022/09/19 15:42:45;;;;;;;6.60;2.37;;;;;;;14.63;82.17;100019.31;3405504;85;98893;-88
2022/09/19 15:47:46;;;;;;;5.62;2.12;;;;;;;14.34;82.85;99998.08;3405260;84;35414;-87
2022/09/19 15:52:48;;;;;;;6.77;3.40;;;;;;;14.34;82.85;99998.08;3401689;85;98564;-87
2022/09/19 15:57:51;;;;;;;6.75;2.72;;;;;;;14.33;82.92;100018.66;3395808;85;36041;-89
2022/09/19 16:02:59;;;;;;;7.40;2.87;;;;;;;14.16;82.91;100014.66;3395512;85;98564;-89
2022/09/19 16:13:40;;;;;;;3.75;1.80;;;;;;;13.85;83.22;100028.20;3376322;85;98842;-88
2022/09/19 16:18:48;;;;;;;26.40;18.40;;;;;;;13.73;83.79;100032.24;3406294;84;34886;-89
2022/09/19 16:23:51;;;;;;;10.55;6.12;;;;;;;13.61;84.21;100039.65;3402798;85;99077;-90
2022/09/19 16:28:54;;;;;;;7.47;4.03;;;;;;;13.53;84.83;100045.02;3415828;85;33497;-89
2022/09/19 16:34:28;;;;;;;8.05;3.87;;;;;;;13.48;85.30;100043.30;3396326;84;98618;-89
2022/09/19 16:39:37;;;;;;;8.23;3.98;;;;;;;13.42;85.78;100043.54;3415182;84;35018;-87
2022/09/19 16:44:43;;;;;;;6.20;3.62;;;;;;;13.30;85.92;100057.84;3406769;84;99119;-88
2022/09/19 16:49:47;;;;;;;6.45;3.50;;;;;;;13.10;86.29;100040.97;3414736;85;26303;-88
2022/09/19 16:54:49;;;;;;;14.58;7.90;;;;;;;13.15;86.59;100072.91;3398957;84;98504;-88
2022/09/19 16:59:53;;;;;;;15.72;9.70;;;;;;;13.07;86.67;100087.35;3336517;86;35478;-88
2022/09/19 17:04:58;;;;;;;11.70;6.77;;;;;;;13.00;86.84;100095.68;3376309;86;98750;-88
2022/09/19 17:09:59;;;;;;;12.55;6.05;;;;;;;12.93;87.12;100101.18;3317942;87;35167;-88
2022/09/19 17:15:00;;;;;;;18.60;11.77;;;;;;;12.86;87.15;100104.59;3284560;88;98930;-89
2022/09/19 17:20:02;;;;;;;23.13;15.60;;;;;;;12.80;87.45;100107.57;3324763;86;27229;-89
2022/09/19 17:25:21;;;;;;;12.65;7.10;;;;;;;12.75;87.91;100110.73;3436082;83;98793;-88
2022/09/19 17:30:22;;;;;;;13.22;8.15;;;;;;;12.73;88.42;100109.75;3412746;84;34929;-87
2022/09/19 17:35:23;;;;;;;16.03;8.77;;;;;;;12.68;88.27;100106.59;3417193;84;99145;-88
2022/09/19 17:40:27;;;;;;;14.10;7.37;;;;;;;12.61;88.39;100114.90;3425336;84;30734;-89
2022/09/19 17:45:31;;;;;;;13.25;7.78;;;;;;;12.54;88.77;100117.07;3408002;84;99247;-89
2022/09/19 17:50:32;;;;;;;12.28;6.97;;;;;;;12.47;88.92;100121.81;3408484;85;34468;-88
2022/09/19 17:55:33;;;;;;;12.60;7.50;;;;;;;12.40;89.38;100138.39;3401469;84;98932;-87
2022/09/19 18:00:37;;;;;;;10.20;6.00;;;;;;;12.33;89.52;100143.31;3400913;84;29140;-87
2022/09/19 18:05:38;;;;;;;11.03;5.72;;;;;;;12.24;89.99;100140.77;3412785;83;98454;-87
2022/09/19 18:10:39;;;;;;;10.23;4.60;;;;;;;12.17;90.52;100151.23;3419569;84;30088;-88
2022/09/19 18:15:42;;;;;;;9.67;3.53;;;;;;;12.11;90.98;100161.66;3422062;85;98728;-88
2022/09/19 18:21:02;;;;;;;6.30;3.05;;;;;;;11.86;91.76;100167.15;3420073;84;34825;-88
2022/09/19 18:26:02;;;;;;;5.45;2.70;;;;;;;11.86;91.76;100167.15;3421498;83;98604;-88
2022/09/19 18:31:08;;;;;;;7.22;3.12;;;;;;;11.79;91.62;100168.52;3428077;84;34833;-88
2022/09/19 18:36:16;;;;;;;10.07;3.57;;;;;;;11.74;91.76;100163.39;3436142;83;26800;-87
2022/09/19 18:41:18;;;;;;;10.70;4.97;;;;;;;11.71;91.74;100165.53;3420937;85;100082;-89
2022/09/19 18:46:22;;;;;;;12.27;5.17;;;;;;;11.67;91.83;100177.74;3430253;84;30456;-88
2022/09/19 18:51:27;;;;;;;8.67;3.83;;;;;;;11.64;92.02;100183.45;3435446;83;99037;-86
2022/09/19 18:56:28;;;;;;;8.15;3.45;;;;;;;11.62;92.13;100185.02;3471943;83;33002;-88
2022/09/19 19:01:34;;;;;;;19.07;11.45;;;;;;;11.57;92.16;100183.98;3466306;83;98532;-88
2022/09/19 19:06:35;;;;;;;12.73;8.80;;;;;;;11.54;92.21;100188.88;3462093;83;34063;-89
2022/09/19 19:11:35;;;;;;;9.20;4.95;;;;;;;11.48;92.43;100184.34;3439336;83;99400;-88
2022/09/19 19:16:37;;;;;;;12.93;7.87;;;;;;;11.42;92.55;100187.86;3470111;84;28788;-89
2022/09/19 19:21:42;;;;;;;11.23;5.73;;;;;;;11.34;92.55;100195.91;3457746;83;98902;-88
2022/09/19 19:26:44;;;;;;;9.28;4.87;;;;;;;11.25;93.00;100192.70;3464462;84;34384;-89
2022/09/19 19:31:45;;;;;;;11.57;6.60;;;;;;;11.17;93.10;100203.51;3460737;84;98945;-88
2022/09/19 19:36:46;;;;;;;13.10;6.70;;;;;;;11.10;93.36;100204.25;3472299;83;29831;-88
2022/09/19 19:41:47;;;;;;;19.95;12.75;;;;;;;11.02;93.44;100230.77;3466216;84;98726;-89
2022/09/19 19:46:49;;;;;;;23.83;15.40;;;;;;;10.72;93.76;100183.36;3472633;82;28098;-88
2022/09/19 19:51:50;;;;;;;28.10;17.90;;;;;;;10.85;93.50;100215.70;3464325;82;99372;-90
2022/09/19 19:56:51;;;;;;;60.90;44.37;;;;;;;10.76;93.98;100219.39;3458771;84;27204;-90
2022/09/19 20:01:53;;;;;;;17.10;10.70;;;;;;;10.72;94.24;100211.69;3458973;82;99412;-89
2022/09/19 20:06:54;;;;;;;17.87;10.23;;;;;;;10.68;94.31;100208.72;3455207;84;27415;-89
2022/09/19 20:11:56;;;;;;;17.20;12.15;;;;;;;10.62;94.49;100217.09;3459060;84;99313;-89
2022/09/19 20:16:59;;;;;;;18.40;11.93;;;;;;;10.54;94.38;100210.78;3475910;82;26890;-89
2022/09/19 20:22:01;;;;;;;12.78;10.85;;;;;;;10.49;94.92;100212.51;3464154;84;99314;-88
2022/09/19 20:27:04;;;;;;;12.10;7.85;;;;;;;10.44;95.04;100214.80;3444619;83;35812;-87
2022/09/19 20:32:05;;;;;;;8.23;4.25;;;;;;;10.39;95.35;100224.21;3471464;82;98839;-88
2022/09/19 20:37:06;;;;;;;8.33;4.03;;;;;;;10.33;95.25;100229.05;3467535;83;28136;-88
2022/09/19 20:42:07;;;;;;;10.75;5.03;;;;;;;10.25;95.47;100235.08;3459863;83;99019;-87
2022/09/19 20:47:08;;;;;;;9.47;3.90;;;;;;;10.20;95.83;100242.30;3463483;83;27188;-88
2022/09/19 20:52:09;;;;;;;9.57;3.40;;;;;;;10.16;95.98;100244.24;3455313;83;98284;-88
2022/09/19 20:57:10;;;;;;;9.77;3.80;;;;;;;10.12;96.05;100243.98;3431381;84;26766;-88
2022/09/19 21:02:11;;;;;;;8.70;4.10;;;;;;;10.06;96.27;100240.80;3418934;83;98450;-88
2022/09/19 21:07:14;;;;;;;9.40;4.40;;;;;;;10.03;96.39;100246.23;3393296;83;33068;-88
2022/09/19 21:12:15;;;;;;;7.97;3.87;;;;;;;9.98;96.36;100243.22;3416042;83;98706;-87
2022/09/19 21:17:16;;;;;;;8.27;3.00;;;;;;;9.95;96.80;100249.49;3439701;83;33614;-88
2022/09/19 21:22:17;;;;;;;7.20;3.00;;;;;;;9.94;96.96;100256.73;3420766;85;98768;-87
2022/09/19 21:27:19;;;;;;;6.40;3.03;;;;;;;9.94;97.03;100253.41;3448606;84;33112;-87
2022/09/19 21:32:20;;;;;;;7.40;2.53;;;;;;;9.92;97.36;100255.73;3396786;85;98390;-87
2022/09/19 21:37:21;;;;;;;5.27;2.27;;;;;;;9.94;97.39;100253.98;3424062;85;32484;-87
2022/09/19 21:42:24;;;;;;;5.37;2.77;;;;;;;9.95;97.67;100252.81;3449708;83;98558;-87
2022/09/19 21:47:24;;;;;;;7.30;3.00;;;;;;;9.98;97.74;100252.84;3434415;84;27190;-87
2022/09/19 21:52:25;;;;;;;6.30;2.80;;;;;;;10.00;97.86;100255.22;3398063;85;98251;-86
2022/09/19 21:57:27;;;;;;;9.20;4.50;;;;;;;9.99;97.83;100250.33;3448217;83;25903;-85
2022/09/19 22:02:28;;;;;;;10.13;5.73;;;;;;;9.97;97.96;100249.12;3413824;84;98583;-86
2022/09/19 22:07:29;;;;;;;9.87;4.27;;;;;;;9.96;97.81;100245.57;3423176;84;26702;-86
2022/09/19 22:12:30;;;;;;;10.37;4.03;;;;;;;9.90;97.97;100250.40;3425450;83;98310;-86
2022/09/19 22:17:31;;;;;;;10.53;4.40;;;;;;;9.85;98.09;100249.36;3426745;84;32580;-86
2022/09/19 22:22:32;;;;;;;8.00;3.27;;;;;;;9.84;98.32;100249.16;3419650;85;98655;-86
2022/09/19 22:27:33;;;;;;;7.20;3.33;;;;;;;9.82;98.42;100257.77;3433000;84;32483;-86
2022/09/19 22:32:33;;;;;;;7.40;3.30;;;;;;;9.78;98.33;100257.53;3420672;83;98338;-85
2022/09/19 22:37:38;;;;;;;9.37;4.30;;;;;;;9.74;98.51;100267.69;3440266;83;28582;-86
2022/09/19 22:42:39;;;;;;;6.40;2.80;;;;;;;9.68;98.56;100265.87;3398401;83;98194;-86
2022/09/19 22:47:40;;;;;;;7.33;2.93;;;;;;;9.63;98.43;100270.89;3439772;83;25913;-85
2022/09/19 22:52:41;;;;;;;8.03;2.67;;;;;;;9.56;98.49;100272.19;3423322;84;98353;-86
2022/09/19 22:57:42;;;;;;;7.63;3.20;;;;;;;9.50;98.53;100268.99;3428826;85;25876;-86
2022/09/19 23:02:43;;;;;;;7.85;3.20;;;;;;;9.44;98.25;100270.45;3402912;85;98215;-85
2022/09/19 23:07:44;;;;;;;5.83;2.80;;;;;;;9.35;98.80;100266.41;3435039;83;26236;-85
2022/09/19 23:12:48;;;;;;;5.17;2.43;;;;;;;9.28;98.59;100273.97;3428083;83;98363;-86
2022/09/19 23:17:51;;;;;;;7.77;2.73;;;;;;;9.23;99.07;100273.52;3411929;85;26509;-85
2022/09/19 23:22:53;;;;;;;6.47;2.43;;;;;;;9.21;99.34;100283.48;3421159;85;98425;-86
2022/09/19 23:27:54;;;;;;;8.70;2.75;;;;;;;9.15;99.18;100279.48;3457843;83;32626;-86
2022/09/19 23:32:55;;;;;;;5.27;2.33;;;;;;;9.10;99.28;100282.55;3437822;83;98246;-86
2022/09/19 23:37:56;;;;;;;8.00;2.57;;;;;;;9.05;99.54;100278.74;3440985;83;26163;-86
2022/09/19 23:42:56;;;;;;;5.13;2.40;;;;;;;8.99;99.17;100280.83;3434280;83;98198;-86
2022/09/19 23:47:57;;;;;;;5.90;2.67;;;;;;;8.96;99.44;100279.61;3447401;83;26253;-85
2022/09/19 23:52:58;;;;;;;5.40;2.27;;;;;;;8.89;99.39;100282.22;3430280;84;98312;-86
2022/09/19 23:57:59;;;;;;;5.90;2.60;;;;;;;8.86;99.69;100291.21;3434629;83;26158;-86
